Time;durP1;ratioP1;P1;durP2;ratioP2;P2;SDS_P1;SDS_P2;PMS_P1;PMS_P2;Temp;Humidity;BMP_temperature;BMP_pressure;BME280_temperature;BME280_humidity;BME280_pressure;Samples;Min_cycle;Max_cycle;Signal;HPM_P1;HPM_P2
2023/01/16 00:00:04;;;;;;;6.82;1.88;;;;;;;0.43;100.00;98355.53;5101959;27;20422;-81
2023/01/16 00:02:31;;;;;;;7.30;1.80;;;;;;;0.61;100.00;98378.94;5113508;27;20075;-81
2023/01/16 00:04:58;;;;;;;3.38;1.60;;;;;;;0.47;100.00;98363.97;5108794;27;20112;-81
2023/01/16 00:07:24;;;;;;;7.03;1.60;;;;;;;0.31;100.00;98328.44;5132687;27;20047;-82
2023/01/16 00:09:51;;;;;;;7.03;1.80;;;;;;;0.50;100.00;98358.72;5113562;27;20074;-81
2023/01/16 00:12:18;;;;;;;5.88;1.40;;;;;;;0.58;100.00;98367.00;5133104;27;20047;-81
2023/01/16 00:14:44;;;;;;;4.38;2.13;;;;;;;0.67;100.00;98371.84;5132433;27;20051;-81
2023/01/16 00:17:11;;;;;;;8.50;1.67;;;;;;;0.74;100.00;98382.75;5132078;27;20051;-80
2023/01/16 00:19:38;;;;;;;2.45;1.50;;;;;;;0.57;100.00;98343.00;5112408;27;20170;-81
2023/01/16 00:22:04;;;;;;;10.57;1.70;;;;;;;0.32;100.00;98322.44;5114960;27;20100;-81
2023/01/16 00:24:31;;;;;;;4.93;1.60;;;;;;;0.49;100.00;98342.41;5132881;27;20100;-81
2023/01/16 00:26:58;;;;;;;4.13;1.50;;;;;;;0.57;100.00;98345.56;5132453;27;20506;-80
2023/01/16 00:29:24;;;;;;;4.47;1.55;;;;;;;0.50;100.00;98318.38;5106031;28;20051;-81
2023/01/16 00:31:51;;;;;;;6.65;2.17;;;;;;;0.55;100.00;98323.38;5128440;27;20039;-81
2023/01/16 00:34:18;;;;;;;4.13;1.52;;;;;;;0.61;100.00;98333.44;5133143;27;20043;-81
2023/01/16 00:36:45;;;;;;;4.43;1.40;;;;;;;0.60;100.00;98307.72;5109723;28;20074;-81
2023/01/16 00:39:11;;;;;;;3.65;1.88;;;;;;;0.74;100.00;98333.81;5112240;28;20051;-81
2023/01/16 00:41:38;;;;;;;4.18;1.52;;;;;;;0.94;100.00;98356.31;5110336;28;20055;-79
2023/01/16 00:44:05;;;;;;;5.35;1.65;;;;;;;0.95;100.00;98342.50;5108139;28;20383;-80
2023/01/16 00:46:32;;;;;;;4.10;1.50;;;;;;;1.04;100.00;98362.78;5120653;27;20051;-80
2023/01/16 00:48:58;;;;;;;4.88;1.70;;;;;;;0.67;100.00;98297.13;5111192;27;20043;-80
2023/01/16 00:51:25;;;;;;;4.97;2.00;;;;;;;0.81;100.00;98337.84;5126086;27;20057;-80
2023/01/16 00:53:52;;;;;;;3.72;1.45;;;;;;;0.94;100.00;98367.44;5131917;27;20043;-79
2023/01/16 00:56:18;;;;;;;5.32;2.00;;;;;;;0.60;100.00;98300.84;5113723;27;20042;-80
2023/01/16 00:58:45;;;;;;;4.85;1.60;;;;;;;0.57;100.00;98303.53;5131949;27;20046;-80
2023/01/16 01:01:12;;;;;;;3.83;1.63;;;;;;;0.93;100.00;98337.41;5132189;27;20043;-81
2023/01/16 01:03:40;;;;;;;5.43;1.50;;;;;;;0.58;100.00;98300.06;5132325;27;20415;-80
2023/01/16 01:06:11;;;;;;;8.77;1.85;;;;;;;0.71;100.00;98318.50;5096427;28;20044;-79
2023/01/16 01:08:38;;;;;;;3.38;1.67;;;;;;;1.00;100.00;98366.38;5113683;28;20403;-80
2023/01/16 01:11:13;;;;;;;6.47;1.60;;;;;;;0.93;100.00;98358.03;5113636;27;20051;-81
2023/01/16 01:13:41;;;;;;;3.35;1.73;;;;;;;1.07;100.00;98361.84;5105154;28;20481;-80
2023/01/16 01:16:08;;;;;;;5.30;1.60;;;;;;;1.04;100.00;98357.63;5109367;28;20044;-80
2023/01/16 01:18:35;;;;;;;3.80;1.70;;;;;;;0.99;100.00;98374.16;5131328;28;20054;-80
2023/01/16 01:21:03;;;;;;;6.90;1.70;;;;;;;0.52;100.00;98297.72;5113296;28;20043;-80
2023/01/16 01:23:30;;;;;;;6.10;1.55;;;;;;;1.02;100.00;98356.84;5116332;28;20416;-80
2023/01/16 01:25:57;;;;;;;5.65;1.60;;;;;;;0.65;100.00;98318.72;5123669;28;20403;-80
2023/01/16 01:28:24;;;;;;;8.80;1.67;;;;;;;0.38;100.00;98291.31;5113444;28;20096;-79
2023/01/16 01:30:51;;;;;;;6.68;1.65;;;;;;;0.60;100.00;98313.72;5127079;28;20050;-81
2023/01/16 01:33:17;;;;;;;5.10;1.70;;;;;;;0.66;100.00;98333.28;5132856;28;20402;-80
2023/01/16 01:35:44;;;;;;;5.63;1.83;;;;;;;0.74;100.00;98331.25;5114879;27;20047;-80
2023/01/16 01:38:11;;;;;;;9.50;2.72;;;;;;;0.66;100.00;98310.09;5117807;27;20062;-80
2023/01/16 01:40:38;;;;;;;4.35;1.70;;;;;;;0.68;100.00;98316.88;5117401;27;20050;-80
2023/01/16 01:43:12;;;;;;;3.97;1.52;;;;;;;0.66;100.00;98307.53;5136710;27;20062;-80
2023/01/16 01:45:41;;;;;;;6.15;1.90;;;;;;;0.60;100.00;98298.25;5132109;27;20050;-81
2023/01/16 01:48:11;;;;;;;6.13;1.73;;;;;;;0.87;100.00;98345.38;5132393;27;20043;-80
2023/01/16 01:50:50;;;;;;;5.88;1.80;;;;;;;0.78;100.00;98335.41;5129293;27;20047;-80
2023/01/16 01:53:44;;;;;;;8.30;2.20;;;;;;;0.51;100.00;98322.63;5136099;27;20051;-80
2023/01/16 01:56:22;;;;;;;4.85;1.63;;;;;;;0.43;100.00;98322.03;5131558;27;20047;-80
2023/01/16 01:58:55;;;;;;;5.43;1.67;;;;;;;0.60;100.00;98342.03;5122964;27;20051;-81
2023/01/16 02:01:24;;;;;;;7.70;1.60;;;;;;;0.19;100.00;98267.09;5104266;27;20043;-80
2023/01/16 02:03:59;;;;;;;4.53;1.58;;;;;;;0.43;100.00;98310.91;5136039;27;20495;-80
2023/01/16 02:06:36;;;;;;;6.32;1.80;;;;;;;0.46;100.00;98311.66;5102343;27;20039;-81
2023/01/16 02:09:03;;;;;;;4.25;1.52;;;;;;;0.22;100.00;98290.16;5135593;27;20050;-80
2023/01/16 02:11:56;;;;;;;5.03;1.73;;;;;;;0.59;100.00;98329.25;5135069;27;20047;-80
2023/01/16 02:14:27;;;;;;;7.45;1.63;;;;;;;0.47;100.00;98327.94;5104664;27;20104;-81
2023/01/16 02:20:08;;;;;;;6.13;1.73;;;;;;;0.57;100.00;98337.03;5133177;27;20039;-80
2023/01/16 02:22:56;;;;;;;5.57;1.60;;;;;;;0.57;100.00;98343.00;5131251;27;20044;-80
2023/01/16 02:25:41;;;;;;;5.80;1.80;;;;;;;0.47;100.00;98339.06;5104804;27;20051;-81
2023/01/16 02:28:11;;;;;;;4.97;1.70;;;;;;;0.33;100.00;98336.97;5134276;27;20051;-79
2023/01/16 02:30:53;;;;;;;4.18;1.55;;;;;;;0.49;100.00;98331.28;5116845;27;20433;-80
2023/01/16 02:33:25;;;;;;;5.90;1.90;;;;;;;0.36;100.00;98326.56;5135540;27;20454;-80
2023/01/16 02:35:59;;;;;;;7.28;1.75;;;;;;;0.39;100.00;98323.06;5102341;27;20041;-80
2023/01/16 02:38:38;;;;;;;4.32;1.63;;;;;;;0.44;100.00;98323.72;5116448;27;20054;-80
2023/01/16 02:41:20;;;;;;;4.95;1.60;;;;;;;0.30;100.00;98295.03;5128292;27;20047;-81
2023/01/16 02:43:57;;;;;;;7.53;2.22;;;;;;;0.08;100.00;98272.63;5130100;27;20096;-81
2023/01/16 02:46:38;;;;;;;2.85;1.50;;;;;;;0.17;100.00;98268.91;5114907;27;20047;-80
2023/01/16 02:49:23;;;;;;;10.00;2.20;;;;;;;0.35;100.00;98306.03;5135318;27;20903;-81
2023/01/16 02:52:10;;;;;;;4.82;1.70;;;;;;;-0.31;100.00;98211.38;5110573;27;20051;-81
2023/01/16 02:54:58;;;;;;;4.45;1.50;;;;;;;0.23;100.00;98285.84;5102842;27;20053;-80
2023/01/16 02:57:33;;;;;;;6.05;1.70;;;;;;;0.09;100.00;98265.75;5102678;27;20078;-80
2023/01/16 03:00:03;;;;;;;4.65;1.67;;;;;;;0.18;100.00;98275.75;5135106;27;20055;-81
2023/01/16 03:02:30;;;;;;;6.47;2.42;;;;;;;0.32;100.00;98296.69;5135165;27;20051;-81
2023/01/16 03:04:57;;;;;;;6.45;1.60;;;;;;;-0.07;100.00;98245.72;5115905;27;20050;-80
2023/01/16 03:07:54;;;;;;;5.13;1.90;;;;;;;0.17;100.00;98280.03;5114133;27;20043;-81
2023/01/16 03:10:40;;;;;;;13.98;3.05;;;;;;;0.08;100.00;98284.66;5106361;27;20100;-80
2023/01/16 03:13:25;;;;;;;3.40;1.50;;;;;;;0.02;100.00;98283.16;5133078;27;20116;-81
2023/01/16 03:16:04;;;;;;;4.45;1.63;;;;;;;0.03;100.00;98271.94;5134260;27;20130;-81
2023/01/16 03:19:19;;;;;;;4.82;2.05;;;;;;;-0.19;100.00;98230.69;5121406;27;20050;-81
2023/01/16 03:22:04;;;;;;;3.72;1.58;;;;;;;0.04;100.00;98263.34;5103444;28;20044;-81
2023/01/16 03:24:52;;;;;;;4.00;1.50;;;;;;;-0.14;100.00;98253.66;5124845;27;20071;-81
2023/01/16 03:27:32;;;;;;;4.10;1.70;;;;;;;-0.27;100.00;98260.97;5113960;27;20059;-81
2023/01/16 03:30:31;;;;;;;2.58;1.38;;;;;;;-0.29;100.00;98255.03;5134891;27;20636;-81
2023/01/16 03:33:10;;;;;;;5.25;1.58;;;;;;;-0.43;100.00;98229.78;5119289;27;20058;-81
2023/01/16 03:35:52;;;;;;;4.13;1.70;;;;;;;-0.44;100.00;98226.38;5101761;27;20035;-81
2023/01/16 03:38:22;;;;;;;5.80;2.17;;;;;;;-0.40;100.00;98240.78;5115949;27;20046;-81
2023/01/16 03:40:52;;;;;;;6.88;1.60;;;;;;;-0.93;100.00;98176.56;5113173;28;20047;-80
2023/01/16 03:43:51;;;;;;;3.10;1.50;;;;;;;-0.42;100.00;98247.72;5097066;28;20078;-80
2023/01/16 03:46:24;;;;;;;6.97;1.60;;;;;;;-0.60;100.00;98240.63;5112048;27;20054;-81
2023/01/16 03:48:58;;;;;;;6.10;1.60;;;;;;;-0.63;100.00;98233.84;5104572;27;20126;-80
2023/01/16 03:51:28;;;;;;;4.18;1.70;;;;;;;-1.15;100.00;98171.28;5112406;28;20054;-81
2023/01/16 03:54:19;;;;;;;3.10;1.63;;;;;;;-0.70;100.00;98223.81;5106249;27;20102;-80
2023/01/16 03:56:54;;;;;;;2.88;1.40;;;;;;;-0.63;100.00;98240.72;5132529;27;20084;-80
2023/01/16 03:59:21;;;;;;;3.80;2.03;;;;;;;-0.63;100.00;98230.44;5129751;27;20047;-80
2023/01/16 04:01:55;;;;;;;6.30;1.65;;;;;;;-0.61;100.00;98244.06;5116007;27;20047;-80
2023/01/16 04:04:32;;;;;;;6.70;1.90;;;;;;;-1.14;100.00;98162.66;5131780;27;20080;-82
2023/01/16 04:07:35;;;;;;;4.75;1.60;;;;;;;-0.64;100.00;98233.88;5105133;27;20045;-81
2023/01/16 04:10:10;;;;;;;7.72;1.90;;;;;;;-0.72;100.00;98235.88;5071514;27;20138;-81
2023/01/16 04:12:42;;;;;;;3.42;1.60;;;;;;;-1.04;100.00;98196.63;5115591;27;20759;-80
2023/01/16 04:15:10;;;;;;;4.53;1.57;;;;;;;-0.79;100.00;98218.06;5116517;27;20040;-80
2023/01/16 04:17:39;;;;;;;5.72;1.60;;;;;;;-1.14;100.00;98175.50;5126963;27;20287;-80
2023/01/16 04:20:07;;;;;;;3.03;1.50;;;;;;;-1.05;100.00;98179.53;5101268;27;20067;-81
2023/01/16 04:22:34;;;;;;;5.43;1.95;;;;;;;-1.23;100.00;98139.84;5115704;27;20051;-80
2023/01/16 04:25:05;;;;;;;4.57;1.50;;;;;;;-1.17;100.00;98158.47;5133443;27;20039;-80
2023/01/16 04:27:32;;;;;;;5.38;1.70;;;;;;;-1.32;100.00;98148.69;5132517;27;20483;-80
2023/01/16 04:29:58;;;;;;;5.75;1.52;;;;;;;-1.08;100.00;98195.00;5133678;27;20051;-81
2023/01/16 04:32:25;;;;;;;4.50;1.70;;;;;;;-0.90;100.00;98217.56;5115192;27;20047;-81
2023/01/16 04:34:52;;;;;;;6.80;1.70;;;;;;;-1.18;100.00;98164.50;5102399;28;20058;-80
2023/01/16 04:37:19;;;;;;;3.92;1.50;;;;;;;-1.08;100.00;98183.03;5111066;27;20395;-81
2023/01/16 04:39:47;;;;;;;5.70;1.77;;;;;;;-1.35;100.00;98141.94;5132672;27;20051;-81
2023/01/16 04:42:14;;;;;;;4.22;1.55;;;;;;;-1.41;100.00;98134.41;5097747;28;20048;-80
2023/01/16 04:44:41;;;;;;;2.42;1.40;;;;;;;-0.89;100.00;98220.97;5112135;28;20435;-81
2023/01/16 04:47:08;;;;;;;3.03;1.45;;;;;;;-1.38;100.00;98153.97;5126875;27;20043;-81
2023/01/16 04:49:35;;;;;;;7.05;1.77;;;;;;;-1.28;100.00;98160.53;5121584;27;20043;-81
2023/01/16 04:52:02;;;;;;;5.15;1.50;;;;;;;-1.28;100.00;98173.34;5110740;28;20051;-81
2023/01/16 04:54:29;;;;;;;4.93;1.50;;;;;;;-1.22;100.00;98185.16;5110704;28;20062;-81
2023/01/16 04:56:56;;;;;;;4.88;1.40;;;;;;;-1.02;100.00;98207.69;5130186;27;20055;-81
2023/01/16 04:59:23;;;;;;;6.85;1.60;;;;;;;-1.48;100.00;98143.16;5132046;27;20511;-81
2023/01/16 05:01:50;;;;;;;3.97;1.60;;;;;;;-1.38;100.00;98162.53;5114717;27;20046;-80
2023/01/16 05:04:18;;;;;;;4.07;1.65;;;;;;;-1.08;100.00;98231.84;5132109;27;20463;-81
2023/01/16 05:06:44;;;;;;;3.17;1.52;;;;;;;-1.15;100.00;98210.63;5112788;28;20055;-81
2023/01/16 05:09:11;;;;;;;2.20;1.40;;;;;;;-1.37;100.00;98171.06;5114276;27;20051;-81
2023/01/16 05:11:38;;;;;;;4.45;1.35;;;;;;;-1.31;100.00;98185.44;5109757;28;20464;-81
2023/01/16 05:14:07;;;;;;;7.65;2.25;;;;;;;-1.08;100.00;98218.13;5132454;27;20059;-81
2023/01/16 05:16:35;;;;;;;2.75;1.48;;;;;;;-1.35;100.00;98185.56;5120436;28;20043;-81
2023/01/16 05:19:02;;;;;;;3.25;1.48;;;;;;;-1.19;100.00;98193.63;5132405;28;20047;-81
2023/01/16 05:21:30;;;;;;;5.03;2.08;;;;;;;-1.49;100.00;98156.88;5114296;28;20047;-81
2023/01/16 05:23:56;;;;;;;4.93;1.70;;;;;;;-1.79;100.00;98105.63;5111105;28;20054;-80
2023/01/16 05:26:23;;;;;;;4.63;1.50;;;;;;;-1.41;100.00;98172.91;5112959;28;20051;-81
2023/01/16 05:28:50;;;;;;;7.03;1.50;;;;;;;-1.59;100.00;98128.09;5114648;28;20483;-81
2023/01/16 05:31:17;;;;;;;3.67;1.70;;;;;;;-1.45;100.00;98160.19;5115066;28;20495;-81
2023/01/16 05:33:43;;;;;;;6.35;1.70;;;;;;;-1.47;100.00;98144.00;5114957;28;20083;-81
2023/01/16 05:36:10;;;;;;;4.10;1.65;;;;;;;-1.34;100.00;98173.56;5117112;28;20129;-82
2023/01/16 05:38:37;;;;;;;3.63;1.50;;;;;;;-1.41;100.00;98166.94;5099614;28;20051;-81
2023/01/16 05:41:04;;;;;;;3.78;1.50;;;;;;;-1.48;100.00;98158.56;5114295;28;20096;-81
2023/01/16 05:43:31;;;;;;;4.55;1.60;;;;;;;-1.49;100.00;98133.78;5132485;28;20058;-82
2023/01/16 05:45:58;;;;;;;3.75;1.40;;;;;;;-1.04;100.00;98194.06;5118049;28;20062;-81
2023/01/16 05:48:25;;;;;;;5.80;1.63;;;;;;;-1.28;100.00;98162.25;5132300;28;20100;-81
2023/01/16 05:50:52;;;;;;;2.70;1.70;;;;;;;-1.61;100.00;98109.34;5123329;28;20055;-82
2023/01/16 05:53:18;;;;;;;3.03;1.40;;;;;;;-1.29;100.00;98161.44;5113889;28;20043;-81
2023/01/16 05:55:47;;;;;;;2.45;1.50;;;;;;;-1.57;100.00;98112.66;5111924;28;20054;-82
2023/01/16 05:58:16;;;;;;;3.50;2.00;;;;;;;-1.41;100.00;98128.44;5131330;28;20043;-83
2023/01/16 06:00:43;;;;;;;6.53;1.50;;;;;;;-1.55;100.00;98116.00;5132468;28;20055;-82
2023/01/16 06:03:10;;;;;;;1.73;1.30;;;;;;;-1.56;100.00;98114.31;5100497;28;20044;-81
2023/01/16 06:05:37;;;;;;;4.22;1.45;;;;;;;-1.51;100.00;98127.84;5114230;28;20472;-82
2023/01/16 06:08:04;;;;;;;2.92;1.45;;;;;;;-1.38;100.00;98142.00;5127211;28;20039;-82
2023/01/16 06:10:31;;;;;;;4.38;1.40;;;;;;;-1.08;100.00;98192.44;5123120;28;20606;-82
2023/01/16 06:13:00;;;;;;;6.35;1.95;;;;;;;-1.10;100.00;98173.69;5131769;28;20075;-82
2023/01/16 06:15:27;;;;;;;4.68;1.45;;;;;;;-1.55;100.00;98110.88;5113491;28;20043;-81
2023/01/16 06:17:55;;;;;;;2.58;1.50;;;;;;;-1.42;100.00;98142.97;5105510;28;20058;-82
2023/01/16 06:20:22;;;;;;;2.50;1.60;;;;;;;-1.06;100.00;98182.97;5110443;28;20039;-82
2023/01/16 06:22:49;;;;;;;2.03;1.38;;;;;;;-1.45;100.00;98120.00;5105374;27;20053;-81
2023/01/16 06:25:16;;;;;;;4.00;1.60;;;;;;;-1.47;100.00;98123.47;5111041;27;20051;-82
2023/01/16 06:27:47;;;;;;;2.97;1.33;;;;;;;-1.32;100.00;98156.38;5105253;28;20039;-82
2023/01/16 06:30:14;;;;;;;7.95;2.50;;;;;;;-1.54;100.00;98128.81;5133433;27;20043;-82
2023/01/16 06:32:41;;;;;;;2.97;1.50;;;;;;;-1.49;100.00;98125.25;5129118;27;21037;-81
2023/01/16 06:35:08;;;;;;;2.00;1.60;;;;;;;-1.34;100.00;98169.25;5121772;27;20055;-82
2023/01/16 06:37:35;;;;;;;3.00;1.55;;;;;;;-1.43;100.00;98141.31;5133225;27;20039;-82
2023/01/16 06:40:02;;;;;;;2.80;1.40;;;;;;;-1.83;100.00;98085.22;5115021;27;20436;-83
2023/01/16 06:42:29;;;;;;;6.15;2.28;;;;;;;-1.41;100.00;98152.38;5114843;27;20047;-82
2023/01/16 06:44:56;;;;;;;2.85;1.50;;;;;;;-1.61;100.00;98116.19;5110405;27;20151;-83
2023/01/16 06:47:22;;;;;;;2.78;1.60;;;;;;;-1.69;100.00;98102.78;5109809;28;20055;-83
2023/01/16 06:49:49;;;;;;;3.65;1.55;;;;;;;-1.73;100.00;98097.72;5131090;27;20051;-82
2023/01/16 06:52:16;;;;;;;2.42;1.30;;;;;;;-1.51;100.00;98145.81;5112703;27;20051;-82
2023/01/16 06:54:43;;;;;;;2.67;1.40;;;;;;;-1.88;100.00;98098.16;5115059;27;20044;-83
2023/01/16 06:57:09;;;;;;;3.33;1.48;;;;;;;-1.89;100.00;98093.94;5129697;27;20043;-83
2023/01/16 06:59:36;;;;;;;2.58;1.40;;;;;;;-1.84;100.00;98112.59;5117173;27;20712;-83
2023/01/16 07:02:03;;;;;;;2.63;1.40;;;;;;;-1.74;100.00;98134.50;5112751;27;20404;-83
2023/01/16 07:04:30;;;;;;;1.85;1.40;;;;;;;-1.91;100.00;98096.53;5127413;27;20066;-83
2023/01/16 07:06:56;;;;;;;1.73;1.40;;;;;;;-1.65;100.00;98141.09;5131510;27;20082;-83
2023/01/16 07:09:29;;;;;;;3.20;1.70;;;;;;;-2.15;100.00;98079.31;5131641;27;20051;-83
2023/01/16 07:11:56;;;;;;;2.90;1.50;;;;;;;-2.08;100.00;98078.25;5131590;27;20051;-83
2023/01/16 07:22:44;;;;;;;2.90;1.50;;;;;;;-1.73;100.00;98096.88;5126603;27;20090;-84
2023/01/16 07:25:25;;;;;;;2.35;1.45;;;;;;;-1.61;100.00;98108.50;5110355;28;20056;-84
2023/01/16 07:27:52;;;;;;;7.45;2.38;;;;;;;-1.72;100.00;98108.81;5130338;27;20043;-83
2023/01/16 07:30:21;;;;;;;2.15;1.40;;;;;;;-1.93;100.00;98076.94;5108616;28;20040;-83
2023/01/16 07:32:48;;;;;;;2.20;1.40;;;;;;;-1.74;100.00;98096.03;5108505;27;20051;-83
2023/01/16 07:35:15;;;;;;;2.10;1.40;;;;;;;-1.87;100.00;98074.22;5115105;27;20054;-83
2023/01/16 07:37:45;;;;;;;2.63;1.63;;;;;;;-1.90;100.00;98071.72;5132916;27;20051;-83
2023/01/16 07:40:12;;;;;;;1.98;1.52;;;;;;;-1.65;100.00;98106.91;5114279;27;20043;-84
2023/01/16 07:42:39;;;;;;;2.83;1.50;;;;;;;-1.68;100.00;98117.25;5116091;27;20054;-84
2023/01/16 07:45:07;;;;;;;3.60;1.42;;;;;;;-1.62;100.00;98135.88;5133765;27;20055;-83
2023/01/16 07:47:36;;;;;;;4.45;1.67;;;;;;;-1.94;100.00;98082.97;5108298;28;20507;-83
2023/01/16 07:50:03;;;;;;;4.93;1.60;;;;;;;-1.70;100.00;98093.38;5096029;28;20051;-83
2023/01/16 07:52:30;;;;;;;3.38;1.52;;;;;;;-1.60;100.00;98092.22;5129931;27;20048;-83
2023/01/16 07:54:57;;;;;;;1.80;1.40;;;;;;;-1.84;100.00;98047.63;5126501;27;20055;-82
2023/01/16 07:57:25;;;;;;;2.65;1.60;;;;;;;-1.68;100.00;98053.13;5131468;27;20471;-84
2023/01/16 07:59:51;;;;;;;5.93;1.80;;;;;;;-1.43;100.00;98102.81;5112693;28;20055;-84
2023/01/16 08:02:18;;;;;;;2.60;1.52;;;;;;;-1.83;100.00;98034.75;5130099;27;20051;-83
2023/01/16 08:04:46;;;;;;;2.47;1.80;;;;;;;-1.41;100.00;98095.06;5133860;27;20057;-82
2023/01/16 08:07:12;;;;;;;3.03;1.50;;;;;;;-1.52;100.00;98074.88;5110928;28;20047;-83
2023/01/16 08:09:39;;;;;;;4.63;1.85;;;;;;;-1.60;100.00;98064.81;5101373;27;20399;-83
2023/01/16 08:12:06;;;;;;;4.55;1.50;;;;;;;-1.69;100.00;98048.88;5133540;27;20054;-83
2023/01/16 08:14:33;;;;;;;2.97;1.70;;;;;;;-1.56;100.00;98071.56;5134513;27;20047;-82
2023/01/16 08:16:59;;;;;;;2.42;1.63;;;;;;;-1.40;100.00;98073.63;5107641;28;20411;-84
2023/01/16 08:19:26;;;;;;;2.53;1.45;;;;;;;-1.60;100.00;98041.72;5128232;27;20050;-83
2023/01/16 08:21:53;;;;;;;3.45;1.60;;;;;;;-1.37;100.00;98092.34;5115625;27;20118;-83
2023/01/16 08:24:20;;;;;;;3.53;1.60;;;;;;;-1.26;100.00;98097.13;5132287;27;20054;-84
2023/01/16 08:26:46;;;;;;;2.72;1.60;;;;;;;-1.40;100.00;98068.50;5119562;27;20494;-83
2023/01/16 08:29:13;;;;;;;5.60;1.60;;;;;;;-1.06;100.00;98114.47;5115380;27;20361;-83
2023/01/16 08:31:40;;;;;;;2.45;1.50;;;;;;;-1.19;100.00;98101.19;5109991;27;20488;-83
2023/01/16 08:34:07;;;;;;;2.72;1.60;;;;;;;-1.26;100.00;98073.19;5115302;27;20548;-84
2023/01/16 08:36:33;;;;;;;4.28;1.73;;;;;;;-1.35;100.00;98087.16;5113258;27;20472;-84
2023/01/16 08:39:00;;;;;;;4.78;1.60;;;;;;;-1.34;100.00;98065.75;5133107;27;20068;-84
2023/01/16 08:52:36;;;;;;;2.38;1.50;;;;;;;-0.94;100.00;98100.38;5133468;27;20043;-83
2023/01/16 08:55:04;;;;;;;4.43;1.75;;;;;;;-0.85;100.00;98115.50;5115147;27;20061;-84
2023/01/16 08:57:31;;;;;;;4.22;1.67;;;;;;;-1.36;100.00;98034.97;5108848;28;20404;-84
2023/01/16 08:59:57;;;;;;;4.00;1.70;;;;;;;-1.27;100.00;98023.56;5111713;27;20047;-84
2023/01/16 09:02:26;;;;;;;8.23;1.92;;;;;;;-0.75;100.00;98069.78;5111918;28;20473;-83
2023/01/16 09:04:54;;;;;;;9.93;3.40;;;;;;;-0.38;100.00;98068.47;5115283;27;20513;-84
2023/01/16 09:07:22;;;;;;;8.68;3.38;;;;;;;-0.34;100.00;98070.03;5108786;28;20113;-84
2023/01/16 09:09:49;;;;;;;7.88;2.85;;;;;;;-0.04;100.00;98054.38;5114602;27;20043;-84
2023/01/16 09:15:01;;;;;;;6.20;2.08;;;;;;;0.37;100.00;98103.44;5132096;27;20051;-84
2023/01/16 09:17:29;;;;;;;7.03;1.95;;;;;;;-0.47;100.00;98046.50;5132040;28;20050;-84
2023/01/16 09:19:55;;;;;;;5.55;1.90;;;;;;;-0.67;100.00;98047.22;5096906;28;20044;-83
2023/01/16 09:22:23;;;;;;;7.50;2.75;;;;;;;-0.42;100.00;98095.22;5111087;28;20059;-84
2023/01/16 09:24:49;;;;;;;13.35;4.20;;;;;;;-0.75;100.00;98045.81;5113870;28;20052;-83
2023/01/16 09:27:18;;;;;;;19.70;6.45;;;;;;;-0.69;100.00;98066.16;5110237;28;20393;-83
2023/01/16 09:29:45;;;;;;;14.98;5.72;;;;;;;-0.64;100.00;98054.84;5126799;28;20047;-83
2023/01/16 09:32:12;;;;;;;16.92;5.95;;;;;;;-0.30;100.00;98086.19;5101816;28;20408;-84
2023/01/16 09:34:40;;;;;;;15.30;5.95;;;;;;;-0.45;100.00;98067.84;5125849;28;20134;-84
2023/01/16 09:37:08;;;;;;;19.33;5.70;;;;;;;-0.28;100.00;98087.00;5113802;28;20105;-83
2023/01/16 09:39:35;;;;;;;10.18;3.80;;;;;;;-0.26;100.00;98085.22;5115218;28;20398;-84
2023/01/16 09:45:10;;;;;;;5.53;1.90;;;;;;;-0.15;100.00;98095.13;5133331;28;20051;-83
2023/01/16 09:47:44;;;;;;;4.80;1.55;;;;;;;-0.58;100.00;98008.34;5108139;28;20237;-83
2023/01/16 09:50:17;;;;;;;6.78;1.50;;;;;;;-0.16;100.00;98072.84;5131915;28;20126;-83
2023/01/16 09:58:48;;;;;;;2.55;1.48;;;;;;;-0.22;100.00;98048.19;5132073;27;20043;-85
2023/01/16 10:01:33;;;;;;;3.17;1.55;;;;;;;-0.31;100.00;98020.25;5136682;27;20142;-85
2023/01/16 10:04:14;;;;;;;4.15;1.65;;;;;;;-0.14;100.00;98051.34;5122594;27;20063;-85
2023/01/16 10:07:10;;;;;;;3.65;1.58;;;;;;;0.16;100.00;98079.34;5116513;27;20448;-84
2023/01/16 10:09:55;;;;;;;3.85;1.60;;;;;;;0.22;100.00;98093.75;5099583;27;20051;-83
2023/01/16 10:12:31;;;;;;;5.63;1.55;;;;;;;-0.19;100.00;98014.66;5107922;28;20044;-83
2023/01/16 10:15:01;;;;;;;2.53;1.40;;;;;;;0.43;100.00;98071.50;5129747;27;20051;-83
2023/01/16 10:17:39;;;;;;;2.47;1.42;;;;;;;0.47;100.00;98073.88;5107653;27;20047;-83
2023/01/16 10:20:51;;;;;;;4.13;1.50;;;;;;;0.53;100.00;98070.22;5118367;27;20737;-84
2023/01/16 10:23:27;;;;;;;11.13;3.35;;;;;;;0.50;100.00;98067.78;5130692;27;20468;-83
2023/01/16 10:26:06;;;;;;;10.32;4.07;;;;;;;0.45;100.00;98064.56;5135661;27;20051;-83
2023/01/16 10:28:48;;;;;;;11.65;4.68;;;;;;;0.66;100.00;98065.44;5116160;27;20047;-84
2023/01/16 10:31:20;;;;;;;15.13;6.00;;;;;;;0.60;100.00;98058.78;5104252;28;20060;-84
2023/01/16 10:33:56;;;;;;;11.57;4.15;;;;;;;0.59;100.00;98062.25;5136359;27;20428;-83
2023/01/16 10:36:35;;;;;;;7.85;3.25;;;;;;;0.51;100.00;98035.97;5116103;27;20055;-83
2023/01/16 10:39:03;;;;;;;7.55;2.85;;;;;;;0.68;100.00;98043.03;5108963;28;20428;-83
2023/01/16 10:50:05;;;;;;;4.63;1.70;;;;;;;0.56;100.00;97960.22;5121398;27;20679;-84
2023/01/16 10:52:33;;;;;;;4.35;1.77;;;;;;;0.62;100.00;97982.31;5121164;27;20600;-83
2023/01/16 10:55:00;;;;;;;2.83;1.40;;;;;;;0.48;100.00;97964.84;5102779;27;20101;-85
2023/01/16 10:57:28;;;;;;;2.20;1.40;;;;;;;0.67;100.00;98025.91;5115703;27;20130;-84
2023/01/16 11:00:04;;;;;;;4.97;2.03;;;;;;;0.41;100.00;97949.72;5135712;27;20843;-82
2023/01/16 11:02:40;;;;;;;3.33;1.60;;;;;;;0.95;100.00;98021.28;5112041;28;20485;-83
2023/01/16 11:05:23;;;;;;;4.13;1.45;;;;;;;1.16;100.00;98016.13;5128259;27;20047;-82
2023/01/16 11:07:55;;;;;;;1.65;1.25;;;;;;;1.13;100.00;98013.66;5109511;27;20052;-83
2023/01/16 11:10:22;;;;;;;2.83;1.38;;;;;;;0.67;100.00;97975.22;5116666;27;20046;-83
2023/01/16 11:18:34;;;;;;;3.25;1.30;;;;;;;1.02;100.00;97982.38;5133465;27;20043;-83
2023/01/16 11:21:29;;;;;;;3.22;1.35;;;;;;;1.27;100.00;98000.19;5114425;27;20051;-83
2023/01/16 11:24:21;;;;;;;3.25;1.60;;;;;;;1.38;100.00;98003.16;5116832;27;20130;-82
2023/01/16 11:26:54;;;;;;;2.05;1.60;;;;;;;1.13;100.00;97951.81;5101449;27;20472;-83
2023/01/16 11:29:23;;;;;;;2.85;1.52;;;;;;;0.87;100.00;97956.38;5110877;27;20043;-83
2023/01/16 11:32:00;;;;;;;4.18;1.70;;;;;;;1.22;100.00;97977.22;5132568;27;20043;-83
2023/01/16 11:34:29;;;;;;;2.38;1.35;;;;;;;1.00;100.00;97936.06;5116340;27;20054;-83
2023/01/16 11:37:02;;;;;;;4.53;1.58;;;;;;;1.50;100.00;97983.69;5132510;27;20039;-83
2023/01/16 11:39:31;;;;;;;2.60;1.40;;;;;;;1.47;100.00;97981.25;5116117;27;20075;-83
2023/01/16 11:46:01;;;;;;;4.30;1.65;;;;;;;1.45;100.00;97968.47;5100320;28;20066;-83
2023/01/16 11:47:44;;;;;;;6.88;1.48;;;;;;;1.42;100.00;97958.28;5125516;27;20161;-81
2023/01/16 11:50:37;;;;;;;1.70;1.20;;;;;;;1.07;100.00;97947.78;5129670;27;20448;-83
2023/01/16 11:53:04;;;;;;;2.75;1.45;;;;;;;1.00;100.00;97902.56;5110803;27;20426;-83
2023/01/16 11:55:41;;;;;;;1.95;1.30;;;;;;;1.56;100.00;97969.69;5116186;27;20050;-83
2023/01/16 11:58:31;;;;;;;1.80;1.30;;;;;;;1.23;100.00;97923.91;5111746;27;20043;-83
2023/01/16 12:01:10;;;;;;;2.97;1.50;;;;;;;1.76;100.00;97953.31;5115905;27;20046;-83
2023/01/16 12:03:59;;;;;;;2.55;1.35;;;;;;;1.40;100.00;97910.25;5126786;27;20047;-83
2023/01/16 12:06:52;;;;;;;3.00;1.48;;;;;;;1.47;100.00;97950.31;5102044;27;20075;-83
2023/01/16 12:09:32;;;;;;;2.33;1.55;;;;;;;1.76;100.00;97943.00;5111834;27;20175;-84
2023/01/16 12:15:22;;;;;;;1.90;1.30;;;;;;;1.49;100.00;97927.91;5129376;27;20077;-83
2023/01/16 12:17:52;;;;;;;1.98;1.20;;;;;;;1.49;100.00;97930.47;5126437;27;20047;-83
2023/01/16 12:20:34;;;;;;;1.83;1.30;;;;;;;1.62;100.00;97907.53;5132582;27;20051;-83
2023/01/16 12:23:12;;;;;;;2.97;1.30;;;;;;;1.36;100.00;97864.88;5115095;27;20399;-83
2023/01/16 12:25:54;;;;;;;2.63;1.30;;;;;;;1.52;100.00;97900.22;5126495;27;20058;-83
2023/01/16 12:28:48;;;;;;;1.90;1.30;;;;;;;1.75;100.00;97925.84;5113493;27;20050;-83
2023/01/16 12:31:41;;;;;;;3.85;1.40;;;;;;;1.66;100.00;97902.13;5126043;27;20054;-83
2023/01/16 12:34:23;;;;;;;2.85;1.42;;;;;;;1.56;100.00;97875.13;5121582;27;20089;-83
2023/01/16 12:37:08;;;;;;;3.20;1.30;;;;;;;1.84;100.00;97912.50;5114031;27;20051;-83
2023/01/16 12:39:38;;;;;;;1.95;1.27;;;;;;;1.75;100.00;97910.38;5133080;27;20499;-83
2023/01/16 12:45:46;;;;;;;3.05;1.40;;;;;;;1.76;100.00;97902.56;5130668;27;20058;-83
2023/01/16 12:48:22;;;;;;;5.10;1.42;;;;;;;1.74;100.00;97886.31;5131236;27;20123;-83